createdAt,value
2023-12-09T00:03:45.972Z,69.06
2023-12-09T00:07:50.342Z,69.62
2023-12-09T00:11:56.753Z,69.96
2023-12-09T00:16:01.367Z,69.39
2023-12-09T00:20:07.164Z,69.21
2023-12-09T00:24:11.995Z,69.72
2023-12-09T00:28:18.396Z,69.44
2023-12-09T00:32:23.680Z,69.20
2023-12-09T00:36:28.761Z,69.20
2023-12-09T00:40:34.890Z,69.29
2023-12-09T00:44:41.334Z,69.45
2023-12-09T00:48:46.383Z,69.80
2023-12-09T00:52:50.899Z,68.97
2023-12-09T00:56:56.815Z,69.77
2023-12-09T01:01:02.961Z,69.63
2023-12-09T01:05:08.858Z,69.97
2023-12-09T01:09:13.789Z,70.01
2023-12-09T01:13:18.426Z,69.32
2023-12-09T01:17:24.965Z,69.69
2023-12-09T01:21:29.415Z,69.55
2023-12-09T01:25:33.709Z,70.03
2023-12-09T01:29:40.612Z,70.06
2023-12-09T01:33:47.610Z,70.09
2023-12-09T01:37:52.522Z,70.18
2023-12-09T01:41:57.735Z,70.22
2023-12-09T01:46:09.089Z,70.62
2023-12-09T01:50:15.914Z,69.53
2023-12-09T01:54:20.950Z,69.82
2023-12-09T01:58:26.028Z,69.86
2023-12-09T02:02:31.141Z,69.55
2023-12-09T02:06:38.250Z,70.05
2023-12-09T02:10:43.644Z,70.02
2023-12-09T02:14:58.160Z,69.79
2023-12-09T02:19:07.423Z,70.50
2023-12-09T02:23:14.656Z,70.51
2023-12-09T02:27:24.696Z,70.65
2023-12-09T02:31:32.973Z,70.98
2023-12-09T02:35:42.705Z,70.69
2023-12-09T02:39:49.579Z,70.38
2023-12-09T02:43:54.144Z,69.99
2023-12-09T02:47:58.612Z,70.09
2023-12-09T02:52:03.275Z,70.68
2023-12-09T02:56:10.878Z,70.61
2023-12-09T03:00:15.791Z,70.67
2023-12-09T03:04:20.809Z,70.76
2023-12-09T03:08:25.698Z,70.94
2023-12-09T03:12:32.451Z,70.80
2023-12-09T03:16:40.157Z,70.86
2023-12-09T03:20:44.835Z,70.97
2023-12-09T03:24:52.024Z,70.45
2023-12-09T03:28:58.380Z,70.61
2023-12-09T03:33:03.299Z,70.84
2023-12-09T03:37:08.079Z,70.53
2023-12-09T03:41:12.610Z,70.34
2023-12-09T03:45:18.894Z,70.44
2023-12-09T03:49:24.190Z,70.53
2023-12-09T03:53:29.265Z,70.08
2023-12-09T03:57:32.845Z,69.80
2023-12-09T04:01:37.546Z,69.73
2023-12-09T04:05:40.929Z,69.38
2023-12-09T04:09:47.392Z,68.83
2023-12-09T04:13:50.747Z,69.26
2023-12-09T04:17:55.476Z,69.12
2023-12-09T04:21:58.848Z,68.87
2023-12-09T04:26:02.004Z,69.45
2023-12-09T04:30:06.119Z,69.10
2023-12-09T04:34:10.972Z,69.84
2023-12-09T04:38:14.118Z,69.63
2023-12-09T04:42:17.363Z,70.38
2023-12-09T04:46:20.865Z,70.22
2023-12-09T04:50:25.670Z,70.43
2023-12-09T04:54:29.006Z,70.83
2023-12-09T04:58:32.127Z,70.71
2023-12-09T05:02:35.368Z,70.81
2023-12-09T05:06:39.966Z,70.92
2023-12-09T05:10:43.047Z,71.05
2023-12-09T05:14:46.244Z,70.56
2023-12-09T05:18:49.507Z,70.58
2023-12-09T05:22:54.239Z,70.89
2023-12-09T05:26:58.953Z,70.84
2023-12-09T05:31:02.404Z,70.66
2023-12-09T05:35:06.057Z,70.67
2023-12-09T05:39:10.893Z,70.32
2023-12-09T05:43:14.250Z,70.54
2023-12-09T05:47:17.516Z,70.26
2023-12-09T05:51:20.772Z,71.02
2023-12-09T05:55:25.790Z,70.91
2023-12-09T05:59:29.167Z,70.95
2023-12-09T06:03:32.565Z,70.84
2023-12-09T06:07:36.032Z,71.01
2023-12-09T06:11:40.605Z,70.68
2023-12-09T06:15:44.047Z,70.55
2023-12-09T06:19:47.176Z,71.33
2023-12-09T06:23:50.552Z,70.55
2023-12-09T06:27:55.009Z,70.88
2023-12-09T06:31:58.416Z,71.15
2023-12-09T06:36:01.892Z,71.11
2023-12-09T06:40:05.727Z,70.94
2023-12-09T06:44:10.692Z,70.81
2023-12-09T06:48:13.920Z,70.93
2023-12-09T06:52:17.512Z,71.32
2023-12-09T06:56:21.158Z,70.84
2023-12-09T07:00:26.658Z,71.06
2023-12-09T07:04:29.922Z,71.06
2023-12-09T07:08:33.086Z,71.33
2023-12-09T07:12:36.289Z,71.39
2023-12-09T07:16:41.239Z,70.91
2023-12-09T07:20:45.014Z,71.12
2023-12-09T07:24:48.273Z,71.07
2023-12-09T07:28:51.443Z,70.82
2023-12-09T07:32:56.130Z,71.11
2023-12-09T07:36:59.393Z,71.19
2023-12-09T07:41:02.762Z,71.01
2023-12-09T07:45:07.176Z,70.72
2023-12-09T07:49:11.739Z,71.07
2023-12-09T07:53:14.923Z,71.31
2023-12-09T07:57:18.609Z,70.97
2023-12-09T08:01:21.860Z,71.21
2023-12-09T08:05:27.708Z,70.86
2023-12-09T08:09:31.347Z,70.66
2023-12-09T08:13:35.192Z,70.77
2023-12-09T08:17:38.411Z,70.78
2023-12-09T08:21:43.147Z,70.23
2023-12-09T08:25:46.468Z,70.18
2023-12-09T08:29:49.699Z,70.58
2023-12-09T08:33:52.857Z,70.64
2023-12-09T08:37:57.412Z,70.21
2023-12-09T08:42:00.488Z,70.63
2023-12-09T08:46:03.596Z,70.58
2023-12-09T08:50:21.307Z,70.62
2023-12-09T08:54:28.456Z,70.22
2023-12-09T08:58:31.563Z,70.49
2023-12-09T09:02:35.453Z,69.71
2023-12-09T09:06:39.425Z,69.54
2023-12-09T09:10:44.936Z,69.41
2023-12-09T09:14:49.120Z,69.30
2023-12-09T09:18:52.967Z,68.51
2023-12-09T09:22:56.875Z,68.18
2023-12-09T09:27:01.519Z,68.68
2023-12-09T09:31:05.507Z,68.48
2023-12-09T09:35:10.596Z,67.48
2023-12-09T09:39:14.318Z,67.10
2023-12-09T09:43:23.287Z,67.86
2023-12-09T09:47:27.013Z,66.93
2023-12-09T09:51:33.221Z,66.42
2023-12-09T09:55:37.459Z,65.98
2023-12-09T09:59:42.425Z,67.31
2023-12-09T10:03:45.864Z,66.92
2023-12-09T10:07:49.372Z,66.49
2023-12-09T10:11:52.550Z,66.46
2023-12-09T10:15:57.055Z,66.33
2023-12-09T10:20:00.875Z,66.18
2023-12-09T10:24:06.543Z,65.11
2023-12-09T10:28:11.989Z,65.67
2023-12-09T10:32:16.747Z,65.57
2023-12-09T10:36:20.202Z,64.29
2023-12-09T10:40:26.167Z,65.08
2023-12-09T10:44:30.582Z,65.03
2023-12-09T10:48:35.222Z,65.60
2023-12-09T10:52:39.949Z,65.24
2023-12-09T10:56:43.042Z,65.63
2023-12-09T11:00:48.055Z,65.05
2023-12-09T11:04:54.036Z,65.41
2023-12-09T11:08:57.624Z,64.67
2023-12-09T11:13:01.605Z,64.85
2023-12-09T11:17:06.373Z,65.20
2023-12-09T11:21:10.971Z,65.55
2023-12-09T11:25:25.563Z,66.35
2023-12-09T11:29:29.347Z,65.77
2023-12-09T11:33:34.414Z,66.52
2023-12-09T11:37:39.459Z,66.79
2023-12-09T11:41:43.795Z,65.66
2023-12-09T11:45:48.092Z,65.21
2023-12-09T11:49:52.056Z,65.54
2023-12-09T11:53:57.992Z,65.92
2023-12-09T11:58:01.235Z,65.15
2023-12-09T12:02:05.126Z,65.22
2023-12-09T12:06:12.877Z,65.36
2023-12-09T12:10:19.557Z,65.64
2023-12-09T12:14:23.113Z,66.07
2023-12-09T12:18:26.877Z,65.34
2023-12-09T12:22:30.411Z,65.25
2023-12-09T12:26:35.410Z,64.61
2023-12-09T12:30:41.143Z,64.18
2023-12-09T12:34:47.289Z,64.31
2023-12-09T12:38:53.559Z,63.81
2023-12-09T12:42:58.185Z,63.47
2023-12-09T12:47:01.711Z,63.98
2023-12-09T12:51:05.516Z,63.19
2023-12-09T12:55:10.488Z,63.51
2023-12-09T12:59:18.362Z,63.25
2023-12-09T13:03:22.183Z,63.59
2023-12-09T13:07:26.925Z,63.32
2023-12-09T13:11:33.054Z,63.49
2023-12-09T13:15:39.218Z,63.76
2023-12-09T13:19:43.933Z,64.30
2023-12-09T13:23:48.813Z,65.09
2023-12-09T13:27:53.784Z,64.35
2023-12-09T13:32:03.863Z,65.15
2023-12-09T13:36:11.450Z,64.99
2023-12-09T13:40:16.492Z,65.52
2023-12-09T13:44:21.129Z,65.41
2023-12-09T13:48:27.326Z,65.70
2023-12-09T13:52:33.979Z,65.84
2023-12-09T13:56:40.688Z,65.76
2023-12-09T14:00:46.060Z,65.87
2023-12-09T14:04:52.264Z,65.98
2023-12-09T14:08:56.786Z,65.31
2023-12-09T14:13:01.548Z,66.06
2023-12-09T14:17:07.018Z,66.76
2023-12-09T14:21:14.676Z,66.68
2023-12-09T14:25:19.750Z,67.32
2023-12-09T14:29:24.432Z,67.51
2023-12-09T14:33:29.364Z,67.84
2023-12-09T14:37:35.537Z,68.24
2023-12-09T14:41:42.067Z,69.21
2023-12-09T14:45:47.024Z,68.81
2023-12-09T14:49:51.879Z,68.69
2023-12-09T14:53:58.463Z,69.22
2023-12-09T14:58:02.692Z,69.72
2023-12-09T15:02:07.436Z,69.58
2023-12-09T15:06:13.094Z,69.99
2023-12-09T15:10:23.816Z,70.21
2023-12-09T15:14:28.301Z,70.07
2023-12-09T15:18:33.062Z,71.04
2023-12-09T15:22:37.849Z,71.05
2023-12-09T15:26:44.508Z,71.65
2023-12-09T15:30:50.416Z,72.30
2023-12-09T15:34:55.675Z,72.95
2023-12-09T15:39:00.828Z,73.21
2023-12-09T15:43:10.078Z,72.89
2023-12-09T15:47:14.967Z,72.80
2023-12-09T15:51:19.652Z,72.89
2023-12-09T15:55:24.383Z,72.69
2023-12-09T15:59:33.559Z,73.08
2023-12-09T16:03:38.648Z,72.90
2023-12-09T16:07:44.724Z,72.86
2023-12-09T16:11:50.045Z,72.86
2023-12-09T16:15:57.825Z,72.93
2023-12-09T16:20:03.816Z,73.37
2023-12-09T16:24:11.569Z,73.51
2023-12-09T16:28:16.696Z,73.79
2023-12-09T16:32:23.592Z,73.43
2023-12-09T16:36:28.535Z,73.65
2023-12-09T16:40:35.307Z,73.32
2023-12-09T16:44:40.537Z,73.65
2023-12-09T16:48:47.196Z,73.36
2023-12-09T16:52:51.845Z,73.27
2023-12-09T16:56:56.625Z,73.32
2023-12-09T17:01:01.919Z,73.62
2023-12-09T17:05:11.943Z,73.48
2023-12-09T17:09:17.429Z,73.20
2023-12-09T17:13:22.043Z,73.65
2023-12-09T17:17:26.978Z,73.62
2023-12-09T17:21:33.382Z,73.41
2023-12-09T17:25:38.974Z,73.63
2023-12-09T17:29:45.876Z,73.62
2023-12-09T17:33:50.980Z,73.86
2023-12-09T17:37:57.045Z,73.64
2023-12-09T17:42:01.909Z,73.67
2023-12-09T17:46:09.416Z,73.96
2023-12-09T17:50:13.860Z,74.13
2023-12-09T17:54:22.113Z,74.36
2023-12-09T17:58:25.538Z,74.51
2023-12-09T18:02:28.916Z,74.18
2023-12-09T18:06:32.543Z,74.02
2023-12-09T18:10:37.439Z,74.17
2023-12-09T18:14:40.998Z,74.57
2023-12-09T18:18:44.275Z,73.96
2023-12-09T18:22:47.526Z,74.27
2023-12-09T18:26:52.149Z,73.54
2023-12-09T18:30:56.159Z,74.25
2023-12-09T18:34:59.272Z,73.88
2023-12-09T18:39:02.692Z,73.92
2023-12-09T18:43:07.276Z,74.27
2023-12-09T18:47:10.421Z,74.09
2023-12-09T18:51:13.983Z,73.96
2023-12-09T18:55:17.300Z,73.93
2023-12-09T18:59:22.138Z,73.90
2023-12-09T19:03:26.509Z,74.57
2023-12-09T19:07:29.828Z,74.33
2023-12-09T19:11:33.217Z,74.25
2023-12-09T19:15:39.034Z,74.31
2023-12-09T19:19:43.632Z,74.29
2023-12-09T19:23:48.274Z,74.08
2023-12-09T19:27:51.497Z,74.00
2023-12-09T19:31:56.941Z,74.29
2023-12-09T19:36:00.300Z,73.58
2023-12-09T19:40:03.973Z,74.03
2023-12-09T19:44:07.666Z,73.98
2023-12-09T19:48:13.125Z,73.56
2023-12-09T19:52:16.423Z,73.78
2023-12-09T19:56:19.864Z,73.41
2023-12-09T20:00:24.322Z,73.62
2023-12-09T20:04:31.802Z,73.64
2023-12-09T20:08:34.992Z,73.85
2023-12-09T20:12:38.431Z,73.85
2023-12-09T20:16:42.105Z,73.96
2023-12-09T20:20:47.081Z,73.83
2023-12-09T20:24:50.247Z,73.77
2023-12-09T20:28:54.725Z,73.50
2023-12-09T20:32:57.982Z,73.97
2023-12-09T20:37:04.175Z,73.83
2023-12-09T20:41:07.815Z,73.43
2023-12-09T20:45:12.493Z,73.91
2023-12-09T20:49:18.325Z,73.57
2023-12-09T20:53:23.059Z,73.37
2023-12-09T20:57:26.194Z,73.50
2023-12-09T21:01:29.985Z,73.86
2023-12-09T21:05:36.260Z,73.26
2023-12-09T21:09:41.299Z,73.57
2023-12-09T21:13:44.597Z,73.49
2023-12-09T21:17:47.937Z,73.36
2023-12-09T21:21:51.285Z,73.23
2023-12-09T21:25:56.624Z,73.22
2023-12-09T21:30:01.164Z,73.22
2023-12-09T21:34:04.775Z,73.17
2023-12-09T21:38:08.273Z,73.22
2023-12-09T21:42:13.144Z,73.38
2023-12-09T21:46:21.008Z,73.45
2023-12-09T21:50:26.461Z,72.77
2023-12-09T21:54:30.620Z,72.54
2023-12-09T21:58:37.858Z,72.70
2023-12-09T22:02:42.062Z,72.81
2023-12-09T22:06:47.098Z,72.55
2023-12-09T22:10:51.224Z,72.61
2023-12-09T22:14:56.905Z,72.75
2023-12-09T22:19:00.836Z,72.89
2023-12-09T22:23:04.956Z,72.87
2023-12-09T22:27:09.150Z,73.43
2023-12-09T22:31:15.262Z,72.54
2023-12-09T22:35:19.132Z,72.39
2023-12-09T22:39:23.066Z,72.51
2023-12-09T22:43:26.288Z,72.52
2023-12-09T22:47:30.962Z,72.64
2023-12-09T22:51:34.274Z,72.70
2023-12-09T22:55:40.354Z,72.34
2023-12-09T22:59:45.489Z,73.05
2023-12-09T23:03:50.483Z,72.29
2023-12-09T23:07:53.791Z,72.71
2023-12-09T23:11:57.500Z,72.39
2023-12-09T23:16:00.986Z,72.81
2023-12-09T23:20:07.081Z,73.21
2023-12-09T23:24:10.295Z,73.17
2023-12-09T23:28:13.910Z,72.80
2023-12-09T23:32:17.186Z,72.81
2023-12-09T23:36:22.081Z,72.74
2023-12-09T23:40:25.244Z,72.22
2023-12-09T23:44:28.449Z,72.24
2023-12-09T23:48:31.788Z,72.40
2023-12-09T23:52:36.710Z,72.27
2023-12-09T23:56:39.840Z,72.28
